sensor_id;sensor_type;location;lat;lon;timestamp;P1;durP1;ratioP1;P2;durP2;ratioP2
19280;SDS011;9774;52.034;5.342;2022-12-05T00:02:23;24.73;;;14.60;;
19280;SDS011;9774;52.034;5.342;2022-12-05T00:04:50;23.40;;;14.48;;
19280;SDS011;9774;52.034;5.342;2022-12-05T00:07:19;24.83;;;14.82;;
19280;SDS011;9774;52.034;5.342;2022-12-05T00:09:46;22.05;;;13.63;;
19280;SDS011;9774;52.034;5.342;2022-12-05T00:12:14;23.80;;;14.07;;
19280;SDS011;9774;52.034;5.342;2022-12-05T00:14:42;24.95;;;15.15;;
19280;SDS011;9774;52.034;5.342;2022-12-05T00:17:09;22.73;;;13.75;;
19280;SDS011;9774;52.034;5.342;2022-12-05T00:19:36;22.90;;;13.45;;
19280;SDS011;9774;52.034;5.342;2022-12-05T00:22:04;23.65;;;13.50;;
19280;SDS011;9774;52.034;5.342;2022-12-05T00:24:33;24.25;;;13.15;;
19280;SDS011;9774;52.034;5.342;2022-12-05T00:27:00;21.17;;;12.63;;
19280;SDS011;9774;52.034;5.342;2022-12-05T00:29:28;22.33;;;13.98;;
19280;SDS011;9774;52.034;5.342;2022-12-05T00:31:55;20.85;;;13.60;;
19280;SDS011;9774;52.034;5.342;2022-12-05T00:34:23;20.35;;;12.15;;
19280;SDS011;9774;52.034;5.342;2022-12-05T00:36:50;22.02;;;13.48;;
19280;SDS011;9774;52.034;5.342;2022-12-05T00:39:17;23.33;;;13.85;;
19280;SDS011;9774;52.034;5.342;2022-12-05T00:41:46;22.95;;;13.85;;
19280;SDS011;9774;52.034;5.342;2022-12-05T00:44:13;24.15;;;13.35;;
19280;SDS011;9774;52.034;5.342;2022-12-05T00:46:41;21.90;;;13.13;;
19280;SDS011;9774;52.034;5.342;2022-12-05T00:49:09;22.23;;;13.60;;
19280;SDS011;9774;52.034;5.342;2022-12-05T00:51:38;25.58;;;14.75;;
19280;SDS011;9774;52.034;5.342;2022-12-05T00:54:09;22.88;;;14.07;;
19280;SDS011;9774;52.034;5.342;2022-12-05T00:56:37;22.15;;;13.68;;
19280;SDS011;9774;52.034;5.342;2022-12-05T00:59:06;20.60;;;13.43;;
19280;SDS011;9774;52.034;5.342;2022-12-05T01:01:38;19.52;;;13.18;;
19280;SDS011;9774;52.034;5.342;2022-12-05T01:04:08;21.88;;;13.18;;
19280;SDS011;9774;52.034;5.342;2022-12-05T01:06:38;23.70;;;14.27;;
19280;SDS011;9774;52.034;5.342;2022-12-05T01:09:06;23.17;;;13.88;;
19280;SDS011;9774;52.034;5.342;2022-12-05T01:11:36;22.58;;;12.95;;
19280;SDS011;9774;52.034;5.342;2022-12-05T01:14:03;20.77;;;12.45;;
19280;SDS011;9774;52.034;5.342;2022-12-05T01:16:34;21.55;;;12.65;;
19280;SDS011;9774;52.034;5.342;2022-12-05T01:19:03;24.65;;;13.80;;
19280;SDS011;9774;52.034;5.342;2022-12-05T01:21:31;22.75;;;13.80;;
19280;SDS011;9774;52.034;5.342;2022-12-05T01:23:59;22.20;;;13.60;;
19280;SDS011;9774;52.034;5.342;2022-12-05T01:26:26;20.23;;;12.50;;
19280;SDS011;9774;52.034;5.342;2022-12-05T01:28:54;21.63;;;13.20;;
19280;SDS011;9774;52.034;5.342;2022-12-05T01:31:22;22.20;;;14.32;;
19280;SDS011;9774;52.034;5.342;2022-12-05T01:33:56;19.60;;;12.05;;
19280;SDS011;9774;52.034;5.342;2022-12-05T01:36:25;19.88;;;11.70;;
19280;SDS011;9774;52.034;5.342;2022-12-05T01:38:53;21.75;;;13.10;;
19280;SDS011;9774;52.034;5.342;2022-12-05T01:41:22;20.67;;;12.75;;
19280;SDS011;9774;52.034;5.342;2022-12-05T01:43:53;18.83;;;11.85;;
19280;SDS011;9774;52.034;5.342;2022-12-05T01:46:21;21.27;;;12.38;;
19280;SDS011;9774;52.034;5.342;2022-12-05T01:48:49;20.27;;;12.23;;
19280;SDS011;9774;52.034;5.342;2022-12-05T01:51:21;19.88;;;12.07;;
19280;SDS011;9774;52.034;5.342;2022-12-05T01:53:49;22.05;;;12.45;;
19280;SDS011;9774;52.034;5.342;2022-12-05T01:56:16;20.98;;;11.88;;
19280;SDS011;9774;52.034;5.342;2022-12-05T01:58:45;21.83;;;13.27;;
19280;SDS011;9774;52.034;5.342;2022-12-05T02:01:13;23.88;;;13.05;;
19280;SDS011;9774;52.034;5.342;2022-12-05T02:03:43;19.48;;;11.65;;
19280;SDS011;9774;52.034;5.342;2022-12-05T02:06:13;21.20;;;13.65;;
19280;SDS011;9774;52.034;5.342;2022-12-05T02:08:42;20.60;;;13.23;;
19280;SDS011;9774;52.034;5.342;2022-12-05T02:11:12;20.00;;;11.82;;
19280;SDS011;9774;52.034;5.342;2022-12-05T02:13:49;17.60;;;10.90;;
19280;SDS011;9774;52.034;5.342;2022-12-05T02:16:34;19.05;;;11.80;;
19280;SDS011;9774;52.034;5.342;2022-12-05T02:19:21;20.63;;;12.20;;
19280;SDS011;9774;52.034;5.342;2022-12-05T02:25:26;15.98;;;10.32;;
19280;SDS011;9774;52.034;5.342;2022-12-05T02:31:21;18.55;;;11.50;;
19280;SDS011;9774;52.034;5.342;2022-12-05T02:33:58;20.88;;;11.60;;
19280;SDS011;9774;52.034;5.342;2022-12-05T02:36:33;21.67;;;12.88;;
19280;SDS011;9774;52.034;5.342;2022-12-05T02:39:05;16.92;;;11.00;;
19280;SDS011;9774;52.034;5.342;2022-12-05T02:41:42;21.23;;;12.63;;
19280;SDS011;9774;52.034;5.342;2022-12-05T02:44:15;21.38;;;11.18;;
19280;SDS011;9774;52.034;5.342;2022-12-05T02:46:49;17.95;;;10.48;;
19280;SDS011;9774;52.034;5.342;2022-12-05T02:49:20;17.63;;;11.52;;
19280;SDS011;9774;52.034;5.342;2022-12-05T02:51:51;20.70;;;11.13;;
19280;SDS011;9774;52.034;5.342;2022-12-05T02:54:24;21.38;;;11.73;;
19280;SDS011;9774;52.034;5.342;2022-12-05T02:56:54;19.02;;;11.02;;
19280;SDS011;9774;52.034;5.342;2022-12-05T02:59:24;19.17;;;12.15;;
19280;SDS011;9774;52.034;5.342;2022-12-05T03:01:53;19.60;;;11.52;;
19280;SDS011;9774;52.034;5.342;2022-12-05T03:04:21;18.88;;;11.68;;
19280;SDS011;9774;52.034;5.342;2022-12-05T03:06:50;19.02;;;11.45;;
19280;SDS011;9774;52.034;5.342;2022-12-05T03:09:22;20.65;;;11.40;;
19280;SDS011;9774;52.034;5.342;2022-12-05T03:11:54;17.20;;;11.05;;
19280;SDS011;9774;52.034;5.342;2022-12-05T03:14:28;18.48;;;10.95;;
19280;SDS011;9774;52.034;5.342;2022-12-05T03:17:00;15.75;;;10.98;;
19280;SDS011;9774;52.034;5.342;2022-12-05T03:19:33;14.63;;;9.73;;
19280;SDS011;9774;52.034;5.342;2022-12-05T03:22:09;20.17;;;11.50;;
19280;SDS011;9774;52.034;5.342;2022-12-05T03:24:44;16.25;;;10.70;;
19280;SDS011;9774;52.034;5.342;2022-12-05T03:27:13;18.55;;;11.07;;
19280;SDS011;9774;52.034;5.342;2022-12-05T03:29:48;17.02;;;10.48;;
19280;SDS011;9774;52.034;5.342;2022-12-05T03:32:22;16.48;;;10.88;;
19280;SDS011;9774;52.034;5.342;2022-12-05T03:34:57;19.05;;;10.93;;
19280;SDS011;9774;52.034;5.342;2022-12-05T03:37:32;16.13;;;9.82;;
19280;SDS011;9774;52.034;5.342;2022-12-05T03:40:08;17.35;;;10.35;;
19280;SDS011;9774;52.034;5.342;2022-12-05T03:42:46;16.02;;;10.68;;
19280;SDS011;9774;52.034;5.342;2022-12-05T03:45:19;17.27;;;11.35;;
19280;SDS011;9774;52.034;5.342;2022-12-05T03:47:55;17.38;;;10.45;;
19280;SDS011;9774;52.034;5.342;2022-12-05T03:50:31;16.92;;;10.75;;
19280;SDS011;9774;52.034;5.342;2022-12-05T03:53:03;17.15;;;11.23;;
19280;SDS011;9774;52.034;5.342;2022-12-05T03:55:35;16.10;;;10.07;;
19280;SDS011;9774;52.034;5.342;2022-12-05T03:58:06;18.45;;;10.63;;
19280;SDS011;9774;52.034;5.342;2022-12-05T04:00:37;15.63;;;10.48;;
19280;SDS011;9774;52.034;5.342;2022-12-05T04:03:12;15.48;;;10.38;;
19280;SDS011;9774;52.034;5.342;2022-12-05T04:05:43;15.75;;;9.65;;
19280;SDS011;9774;52.034;5.342;2022-12-05T04:08:16;17.23;;;10.43;;
19280;SDS011;9774;52.034;5.342;2022-12-05T04:10:47;17.13;;;10.38;;
19280;SDS011;9774;52.034;5.342;2022-12-05T04:13:19;13.65;;;9.75;;
19280;SDS011;9774;52.034;5.342;2022-12-05T04:15:51;14.75;;;9.23;;
19280;SDS011;9774;52.034;5.342;2022-12-05T04:18:42;15.50;;;9.60;;
19280;SDS011;9774;52.034;5.342;2022-12-05T04:21:15;16.27;;;10.05;;
19280;SDS011;9774;52.034;5.342;2022-12-05T04:24:02;17.92;;;10.50;;
19280;SDS011;9774;52.034;5.342;2022-12-05T04:26:52;14.73;;;9.68;;
19280;SDS011;9774;52.034;5.342;2022-12-05T04:29:30;19.65;;;10.90;;
19280;SDS011;9774;52.034;5.342;2022-12-05T04:32:03;14.20;;;9.77;;
19280;SDS011;9774;52.034;5.342;2022-12-05T04:34:37;16.75;;;10.80;;
19280;SDS011;9774;52.034;5.342;2022-12-05T04:37:07;15.80;;;10.18;;
19280;SDS011;9774;52.034;5.342;2022-12-05T04:39:39;15.15;;;8.90;;
19280;SDS011;9774;52.034;5.342;2022-12-05T04:42:12;16.30;;;9.85;;
19280;SDS011;9774;52.034;5.342;2022-12-05T04:44:44;13.77;;;9.40;;
19280;SDS011;9774;52.034;5.342;2022-12-05T04:47:15;14.75;;;8.80;;
19280;SDS011;9774;52.034;5.342;2022-12-05T04:49:46;14.90;;;8.95;;
19280;SDS011;9774;52.034;5.342;2022-12-05T04:52:14;15.48;;;8.93;;
19280;SDS011;9774;52.034;5.342;2022-12-05T04:54:42;14.60;;;9.32;;
19280;SDS011;9774;52.034;5.342;2022-12-05T04:57:14;15.23;;;9.48;;
19280;SDS011;9774;52.034;5.342;2022-12-05T04:59:46;15.43;;;9.25;;
19280;SDS011;9774;52.034;5.342;2022-12-05T05:02:14;14.60;;;8.95;;
19280;SDS011;9774;52.034;5.342;2022-12-05T05:04:46;15.43;;;9.55;;
19280;SDS011;9774;52.034;5.342;2022-12-05T05:07:16;15.85;;;9.65;;
19280;SDS011;9774;52.034;5.342;2022-12-05T05:09:44;15.00;;;9.10;;
19280;SDS011;9774;52.034;5.342;2022-12-05T05:12:11;14.35;;;9.32;;
19280;SDS011;9774;52.034;5.342;2022-12-05T05:14:38;13.82;;;9.60;;
19280;SDS011;9774;52.034;5.342;2022-12-05T05:17:06;15.80;;;9.30;;
19280;SDS011;9774;52.034;5.342;2022-12-05T05:19:33;13.88;;;8.88;;
19280;SDS011;9774;52.034;5.342;2022-12-05T05:22:02;15.85;;;9.65;;
19280;SDS011;9774;52.034;5.342;2022-12-05T05:24:29;15.50;;;9.82;;
19280;SDS011;9774;52.034;5.342;2022-12-05T05:26:56;14.07;;;9.95;;
19280;SDS011;9774;52.034;5.342;2022-12-05T05:29:23;13.93;;;9.25;;
19280;SDS011;9774;52.034;5.342;2022-12-05T05:31:51;15.55;;;9.02;;
19280;SDS011;9774;52.034;5.342;2022-12-05T05:34:18;15.85;;;9.30;;
19280;SDS011;9774;52.034;5.342;2022-12-05T05:36:49;14.55;;;9.20;;
19280;SDS011;9774;52.034;5.342;2022-12-05T05:39:19;14.82;;;9.75;;
19280;SDS011;9774;52.034;5.342;2022-12-05T05:41:47;14.57;;;9.07;;
19280;SDS011;9774;52.034;5.342;2022-12-05T05:44:14;13.20;;;8.65;;
19280;SDS011;9774;52.034;5.342;2022-12-05T05:46:42;14.07;;;8.90;;
19280;SDS011;9774;52.034;5.342;2022-12-05T05:49:09;12.18;;;8.57;;
19280;SDS011;9774;52.034;5.342;2022-12-05T05:51:37;14.38;;;10.18;;
19280;SDS011;9774;52.034;5.342;2022-12-05T05:54:04;14.20;;;9.15;;
19280;SDS011;9774;52.034;5.342;2022-12-05T05:56:32;13.73;;;9.02;;
19280;SDS011;9774;52.034;5.342;2022-12-05T05:59:00;13.27;;;8.68;;
19280;SDS011;9774;52.034;5.342;2022-12-05T06:01:29;14.63;;;9.00;;
19280;SDS011;9774;52.034;5.342;2022-12-05T06:03:56;13.35;;;8.45;;
19280;SDS011;9774;52.034;5.342;2022-12-05T06:06:24;15.93;;;9.10;;
19280;SDS011;9774;52.034;5.342;2022-12-05T06:08:51;13.23;;;8.73;;
19280;SDS011;9774;52.034;5.342;2022-12-05T06:11:20;13.77;;;9.35;;
19280;SDS011;9774;52.034;5.342;2022-12-05T06:13:50;15.13;;;9.35;;
19280;SDS011;9774;52.034;5.342;2022-12-05T06:16:18;16.27;;;10.20;;
19280;SDS011;9774;52.034;5.342;2022-12-05T06:18:45;14.65;;;9.63;;
19280;SDS011;9774;52.034;5.342;2022-12-05T06:21:13;13.20;;;8.73;;
19280;SDS011;9774;52.034;5.342;2022-12-05T06:23:41;11.75;;;8.35;;
19280;SDS011;9774;52.034;5.342;2022-12-05T06:26:09;14.00;;;8.75;;
19280;SDS011;9774;52.034;5.342;2022-12-05T06:28:37;13.80;;;8.82;;
19280;SDS011;9774;52.034;5.342;2022-12-05T06:31:07;14.93;;;9.73;;
19280;SDS011;9774;52.034;5.342;2022-12-05T06:33:35;16.55;;;10.13;;
19280;SDS011;9774;52.034;5.342;2022-12-05T06:36:03;16.20;;;9.60;;
19280;SDS011;9774;52.034;5.342;2022-12-05T06:38:32;15.60;;;9.60;;
19280;SDS011;9774;52.034;5.342;2022-12-05T06:41:03;15.35;;;9.50;;
19280;SDS011;9774;52.034;5.342;2022-12-05T06:43:30;14.40;;;8.90;;
19280;SDS011;9774;52.034;5.342;2022-12-05T06:45:58;16.38;;;9.63;;
19280;SDS011;9774;52.034;5.342;2022-12-05T06:48:30;13.73;;;9.25;;
19280;SDS011;9774;52.034;5.342;2022-12-05T06:50:57;15.25;;;9.13;;
19280;SDS011;9774;52.034;5.342;2022-12-05T06:53:25;15.00;;;9.25;;
19280;SDS011;9774;52.034;5.342;2022-12-05T06:55:55;15.80;;;9.55;;
19280;SDS011;9774;52.034;5.342;2022-12-05T06:58:24;14.43;;;9.40;;
19280;SDS011;9774;52.034;5.342;2022-12-05T07:00:52;13.93;;;8.45;;
19280;SDS011;9774;52.034;5.342;2022-12-05T07:03:48;14.73;;;9.18;;
19280;SDS011;9774;52.034;5.342;2022-12-05T07:06:15;12.48;;;7.90;;
19280;SDS011;9774;52.034;5.342;2022-12-05T07:08:43;11.10;;;8.48;;
19280;SDS011;9774;52.034;5.342;2022-12-05T07:11:11;14.20;;;8.75;;
19280;SDS011;9774;52.034;5.342;2022-12-05T07:13:38;14.00;;;9.70;;
19280;SDS011;9774;52.034;5.342;2022-12-05T07:16:05;14.40;;;8.52;;
19280;SDS011;9774;52.034;5.342;2022-12-05T07:18:33;15.35;;;9.05;;
19280;SDS011;9774;52.034;5.342;2022-12-05T07:21:04;15.88;;;9.40;;
19280;SDS011;9774;52.034;5.342;2022-12-05T07:23:33;13.07;;;8.43;;
19280;SDS011;9774;52.034;5.342;2022-12-05T07:26:03;15.93;;;8.60;;
19280;SDS011;9774;52.034;5.342;2022-12-05T07:28:31;15.23;;;9.35;;
19280;SDS011;9774;52.034;5.342;2022-12-05T07:30:59;14.40;;;9.00;;
19280;SDS011;9774;52.034;5.342;2022-12-05T07:33:27;14.93;;;9.32;;
19280;SDS011;9774;52.034;5.342;2022-12-05T07:35:58;12.95;;;8.43;;
19280;SDS011;9774;52.034;5.342;2022-12-05T07:38:27;15.75;;;9.77;;
19280;SDS011;9774;52.034;5.342;2022-12-05T07:40:54;14.10;;;8.93;;
19280;SDS011;9774;52.034;5.342;2022-12-05T07:43:22;13.52;;;8.55;;
19280;SDS011;9774;52.034;5.342;2022-12-05T07:45:49;15.15;;;9.07;;
19280;SDS011;9774;52.034;5.342;2022-12-05T07:48:17;13.35;;;8.95;;
19280;SDS011;9774;52.034;5.342;2022-12-05T07:50:44;14.23;;;8.98;;
19280;SDS011;9774;52.034;5.342;2022-12-05T07:53:11;12.10;;;7.80;;
19280;SDS011;9774;52.034;5.342;2022-12-05T07:55:40;13.30;;;8.38;;
19280;SDS011;9774;52.034;5.342;2022-12-05T07:58:07;14.23;;;8.93;;
19280;SDS011;9774;52.034;5.342;2022-12-05T08:00:34;14.05;;;9.25;;
19280;SDS011;9774;52.034;5.342;2022-12-05T08:03:02;13.38;;;9.00;;
19280;SDS011;9774;52.034;5.342;2022-12-05T08:05:29;13.25;;;9.50;;
19280;SDS011;9774;52.034;5.342;2022-12-05T08:07:58;13.80;;;9.20;;
19280;SDS011;9774;52.034;5.342;2022-12-05T08:10:25;13.13;;;8.05;;
19280;SDS011;9774;52.034;5.342;2022-12-05T08:12:54;14.20;;;8.38;;
19280;SDS011;9774;52.034;5.342;2022-12-05T08:15:21;12.88;;;8.55;;
19280;SDS011;9774;52.034;5.342;2022-12-05T08:17:48;13.05;;;9.13;;
19280;SDS011;9774;52.034;5.342;2022-12-05T08:20:16;15.02;;;9.40;;
19280;SDS011;9774;52.034;5.342;2022-12-05T08:22:43;12.85;;;7.97;;
19280;SDS011;9774;52.034;5.342;2022-12-05T08:25:10;11.43;;;7.78;;
19280;SDS011;9774;52.034;5.342;2022-12-05T08:27:37;15.27;;;9.05;;
19280;SDS011;9774;52.034;5.342;2022-12-05T08:30:07;14.18;;;9.10;;
19280;SDS011;9774;52.034;5.342;2022-12-05T08:32:34;12.93;;;7.95;;
19280;SDS011;9774;52.034;5.342;2022-12-05T08:35:01;12.18;;;8.13;;
19280;SDS011;9774;52.034;5.342;2022-12-05T08:37:29;12.77;;;8.20;;
19280;SDS011;9774;52.034;5.342;2022-12-05T08:39:56;13.57;;;8.32;;
19280;SDS011;9774;52.034;5.342;2022-12-05T08:42:24;11.25;;;7.88;;
19280;SDS011;9774;52.034;5.342;2022-12-05T08:44:51;13.10;;;8.43;;
19280;SDS011;9774;52.034;5.342;2022-12-05T08:47:19;13.85;;;8.38;;
19280;SDS011;9774;52.034;5.342;2022-12-05T08:49:47;13.75;;;8.50;;
19280;SDS011;9774;52.034;5.342;2022-12-05T08:52:14;12.82;;;8.50;;
19280;SDS011;9774;52.034;5.342;2022-12-05T08:54:41;12.80;;;8.05;;
19280;SDS011;9774;52.034;5.342;2022-12-05T08:57:08;13.63;;;9.15;;
19280;SDS011;9774;52.034;5.342;2022-12-05T08:59:36;13.43;;;8.57;;
19280;SDS011;9774;52.034;5.342;2022-12-05T09:02:03;11.85;;;8.38;;
19280;SDS011;9774;52.034;5.342;2022-12-05T09:04:32;12.38;;;7.13;;
19280;SDS011;9774;52.034;5.342;2022-12-05T09:07:00;11.50;;;7.85;;
19280;SDS011;9774;52.034;5.342;2022-12-05T09:09:27;11.43;;;8.30;;
19280;SDS011;9774;52.034;5.342;2022-12-05T09:11:56;12.88;;;8.07;;
19280;SDS011;9774;52.034;5.342;2022-12-05T09:14:24;12.32;;;8.07;;
19280;SDS011;9774;52.034;5.342;2022-12-05T09:16:56;11.93;;;7.72;;
19280;SDS011;9774;52.034;5.342;2022-12-05T09:19:25;13.95;;;8.07;;
19280;SDS011;9774;52.034;5.342;2022-12-05T09:21:54;12.45;;;8.15;;
19280;SDS011;9774;52.034;5.342;2022-12-05T09:24:22;12.13;;;7.65;;
19280;SDS011;9774;52.034;5.342;2022-12-05T09:26:49;13.32;;;7.85;;
19280;SDS011;9774;52.034;5.342;2022-12-05T09:29:16;12.38;;;8.07;;
19280;SDS011;9774;52.034;5.342;2022-12-05T09:31:44;11.73;;;8.02;;
19280;SDS011;9774;52.034;5.342;2022-12-05T09:34:15;11.43;;;7.63;;
19280;SDS011;9774;52.034;5.342;2022-12-05T09:36:44;11.55;;;7.85;;
19280;SDS011;9774;52.034;5.342;2022-12-05T09:39:16;11.05;;;6.97;;
19280;SDS011;9774;52.034;5.342;2022-12-05T09:44:44;13.57;;;7.35;;
19280;SDS011;9774;52.034;5.342;2022-12-05T09:47:27;11.60;;;7.25;;
19280;SDS011;9774;52.034;5.342;2022-12-05T09:50:00;11.10;;;7.68;;
19280;SDS011;9774;52.034;5.342;2022-12-05T09:52:37;10.52;;;7.22;;
19280;SDS011;9774;52.034;5.342;2022-12-05T09:55:10;11.60;;;7.65;;
19280;SDS011;9774;52.034;5.342;2022-12-05T09:57:42;10.38;;;8.20;;
19280;SDS011;9774;52.034;5.342;2022-12-05T10:00:13;10.60;;;7.43;;
19280;SDS011;9774;52.034;5.342;2022-12-05T10:02:43;11.02;;;6.97;;
19280;SDS011;9774;52.034;5.342;2022-12-05T10:05:20;11.38;;;7.68;;
19280;SDS011;9774;52.034;5.342;2022-12-05T10:07:57;20.08;;;16.95;;
19280;SDS011;9774;52.034;5.342;2022-12-05T10:10:38;13.63;;;11.75;;
19280;SDS011;9774;52.034;5.342;2022-12-05T10:13:20;11.95;;;7.82;;
19280;SDS011;9774;52.034;5.342;2022-12-05T10:16:04;10.07;;;7.88;;
19280;SDS011;9774;52.034;5.342;2022-12-05T10:18:38;11.32;;;8.32;;
19280;SDS011;9774;52.034;5.342;2022-12-05T10:21:10;10.65;;;7.22;;
19280;SDS011;9774;52.034;5.342;2022-12-05T10:23:44;12.10;;;8.07;;
19280;SDS011;9774;52.034;5.342;2022-12-05T10:26:20;9.20;;;6.25;;
19280;SDS011;9774;52.034;5.342;2022-12-05T10:28:50;12.20;;;8.18;;
19280;SDS011;9774;52.034;5.342;2022-12-05T10:31:23;10.63;;;7.57;;
19280;SDS011;9774;52.034;5.342;2022-12-05T10:33:55;10.23;;;7.38;;
19280;SDS011;9774;52.034;5.342;2022-12-05T10:36:26;9.85;;;7.38;;
19280;SDS011;9774;52.034;5.342;2022-12-05T10:38:55;10.32;;;7.28;;
19280;SDS011;9774;52.034;5.342;2022-12-05T10:41:25;9.10;;;6.70;;
19280;SDS011;9774;52.034;5.342;2022-12-05T10:43:53;9.13;;;7.13;;
19280;SDS011;9774;52.034;5.342;2022-12-05T10:46:23;10.07;;;7.10;;
19280;SDS011;9774;52.034;5.342;2022-12-05T10:48:52;8.45;;;6.03;;
19280;SDS011;9774;52.034;5.342;2022-12-05T10:51:22;9.07;;;6.40;;
19280;SDS011;9774;52.034;5.342;2022-12-05T10:53:52;8.80;;;6.35;;
19280;SDS011;9774;52.034;5.342;2022-12-05T10:56:39;9.48;;;6.38;;
19280;SDS011;9774;52.034;5.342;2022-12-05T10:59:09;8.10;;;6.35;;
19280;SDS011;9774;52.034;5.342;2022-12-05T11:01:38;8.50;;;7.10;;
19280;SDS011;9774;52.034;5.342;2022-12-05T11:04:17;7.93;;;6.22;;
19280;SDS011;9774;52.034;5.342;2022-12-05T11:06:48;8.43;;;5.97;;
19280;SDS011;9774;52.034;5.342;2022-12-05T11:09:18;8.98;;;7.28;;
19280;SDS011;9774;52.034;5.342;2022-12-05T11:11:58;9.75;;;7.20;;
19280;SDS011;9774;52.034;5.342;2022-12-05T11:14:51;8.13;;;6.18;;
19280;SDS011;9774;52.034;5.342;2022-12-05T11:17:25;7.80;;;5.55;;
19280;SDS011;9774;52.034;5.342;2022-12-05T11:19:55;7.03;;;5.63;;
19280;SDS011;9774;52.034;5.342;2022-12-05T11:22:29;8.18;;;6.47;;
19280;SDS011;9774;52.034;5.342;2022-12-05T11:24:57;8.43;;;5.63;;
19280;SDS011;9774;52.034;5.342;2022-12-05T11:27:28;12.05;;;7.18;;
19280;SDS011;9774;52.034;5.342;2022-12-05T11:29:58;9.48;;;6.55;;
19280;SDS011;9774;52.034;5.342;2022-12-05T11:32:28;8.13;;;6.38;;
19280;SDS011;9774;52.034;5.342;2022-12-05T11:35:15;8.50;;;6.47;;
19280;SDS011;9774;52.034;5.342;2022-12-05T11:37:50;8.23;;;5.65;;
19280;SDS011;9774;52.034;5.342;2022-12-05T11:40:23;7.13;;;4.85;;
19280;SDS011;9774;52.034;5.342;2022-12-05T11:43:03;5.00;;;3.95;;
19280;SDS011;9774;52.034;5.342;2022-12-05T11:45:47;4.68;;;3.80;;
19280;SDS011;9774;52.034;5.342;2022-12-05T11:48:28;3.47;;;3.00;;
19280;SDS011;9774;52.034;5.342;2022-12-05T11:51:13;4.43;;;3.15;;
19280;SDS011;9774;52.034;5.342;2022-12-05T11:57:27;2.92;;;2.25;;
19280;SDS011;9774;52.034;5.342;2022-12-05T12:00:13;2.28;;;1.90;;
19280;SDS011;9774;52.034;5.342;2022-12-05T12:03:01;2.83;;;2.13;;
19280;SDS011;9774;52.034;5.342;2022-12-05T12:05:49;3.40;;;2.00;;
19280;SDS011;9774;52.034;5.342;2022-12-05T12:08:26;2.33;;;1.95;;
19280;SDS011;9774;52.034;5.342;2022-12-05T12:10:58;2.40;;;2.00;;
19280;SDS011;9774;52.034;5.342;2022-12-05T12:13:37;2.10;;;1.42;;
19280;SDS011;9774;52.034;5.342;2022-12-05T12:16:14;2.85;;;2.00;;
19280;SDS011;9774;52.034;5.342;2022-12-05T12:21:50;2.08;;;1.88;;
19280;SDS011;9774;52.034;5.342;2022-12-05T12:24:31;2.55;;;1.60;;
19280;SDS011;9774;52.034;5.342;2022-12-05T12:27:12;2.78;;;2.08;;
19280;SDS011;9774;52.034;5.342;2022-12-05T12:29:53;2.00;;;1.60;;
19280;SDS011;9774;52.034;5.342;2022-12-05T12:32:31;2.03;;;1.38;;
19280;SDS011;9774;52.034;5.342;2022-12-05T12:37:57;2.58;;;1.75;;
19280;SDS011;9774;52.034;5.342;2022-12-05T12:40:45;3.47;;;2.25;;
19280;SDS011;9774;52.034;5.342;2022-12-05T12:43:18;4.03;;;1.98;;
19280;SDS011;9774;52.034;5.342;2022-12-05T12:46:02;2.60;;;2.17;;
19280;SDS011;9774;52.034;5.342;2022-12-05T12:48:45;2.22;;;1.50;;
19280;SDS011;9774;52.034;5.342;2022-12-05T12:51:23;1.83;;;1.58;;
19280;SDS011;9774;52.034;5.342;2022-12-05T12:54:00;2.58;;;1.73;;
19280;SDS011;9774;52.034;5.342;2022-12-05T12:56:36;2.25;;;1.77;;
19280;SDS011;9774;52.034;5.342;2022-12-05T12:59:16;2.60;;;1.90;;
19280;SDS011;9774;52.034;5.342;2022-12-05T13:01:57;2.42;;;1.58;;
19280;SDS011;9774;52.034;5.342;2022-12-05T13:04:31;2.20;;;1.83;;
19280;SDS011;9774;52.034;5.342;2022-12-05T13:07:04;1.83;;;1.67;;
19280;SDS011;9774;52.034;5.342;2022-12-05T13:09:38;2.38;;;1.75;;
19280;SDS011;9774;52.034;5.342;2022-12-05T13:12:09;1.95;;;1.52;;
19280;SDS011;9774;52.034;5.342;2022-12-05T13:14:42;2.33;;;1.40;;
19280;SDS011;9774;52.034;5.342;2022-12-05T13:17:15;1.95;;;1.45;;
19280;SDS011;9774;52.034;5.342;2022-12-05T13:19:47;3.25;;;1.88;;
19280;SDS011;9774;52.034;5.342;2022-12-05T13:22:17;1.67;;;1.38;;
19280;SDS011;9774;52.034;5.342;2022-12-05T13:24:48;2.45;;;1.60;;
19280;SDS011;9774;52.034;5.342;2022-12-05T13:27:16;1.67;;;1.27;;
19280;SDS011;9774;52.034;5.342;2022-12-05T13:29:47;2.13;;;1.50;;
19280;SDS011;9774;52.034;5.342;2022-12-05T13:32:24;2.20;;;1.73;;
19280;SDS011;9774;52.034;5.342;2022-12-05T13:34:56;1.70;;;1.40;;
19280;SDS011;9774;52.034;5.342;2022-12-05T13:37:28;2.25;;;1.60;;
19280;SDS011;9774;52.034;5.342;2022-12-05T13:40:18;2.58;;;1.60;;
19280;SDS011;9774;52.034;5.342;2022-12-05T13:43:07;2.10;;;1.50;;
19280;SDS011;9774;52.034;5.342;2022-12-05T13:45:35;1.80;;;1.52;;
19280;SDS011;9774;52.034;5.342;2022-12-05T13:48:17;2.00;;;1.45;;
19280;SDS011;9774;52.034;5.342;2022-12-05T13:50:50;2.05;;;1.65;;
19280;SDS011;9774;52.034;5.342;2022-12-05T13:53:22;2.15;;;1.27;;
19280;SDS011;9774;52.034;5.342;2022-12-05T13:55:55;2.30;;;1.65;;
19280;SDS011;9774;52.034;5.342;2022-12-05T13:58:38;2.13;;;1.55;;
19280;SDS011;9774;52.034;5.342;2022-12-05T14:07:13;1.95;;;1.35;;
19280;SDS011;9774;52.034;5.342;2022-12-05T14:10:07;2.35;;;1.67;;
19280;SDS011;9774;52.034;5.342;2022-12-05T14:12:46;3.95;;;1.85;;
19280;SDS011;9774;52.034;5.342;2022-12-05T14:15:23;2.15;;;1.60;;
19280;SDS011;9774;52.034;5.342;2022-12-05T14:18:00;1.73;;;1.33;;
19280;SDS011;9774;52.034;5.342;2022-12-05T14:20:44;3.03;;;1.73;;
19280;SDS011;9774;52.034;5.342;2022-12-05T14:23:29;2.47;;;1.73;;
19280;SDS011;9774;52.034;5.342;2022-12-05T14:29:10;2.10;;;1.40;;
19280;SDS011;9774;52.034;5.342;2022-12-05T14:31:56;1.90;;;1.52;;
19280;SDS011;9774;52.034;5.342;2022-12-05T14:34:29;2.75;;;1.90;;
19280;SDS011;9774;52.034;5.342;2022-12-05T14:36:59;3.20;;;1.70;;
19280;SDS011;9774;52.034;5.342;2022-12-05T14:39:36;3.78;;;2.00;;
19280;SDS011;9774;52.034;5.342;2022-12-05T14:42:14;3.50;;;1.33;;
19280;SDS011;9774;52.034;5.342;2022-12-05T14:44:51;2.97;;;1.65;;
19280;SDS011;9774;52.034;5.342;2022-12-05T14:47:21;2.10;;;1.55;;
19280;SDS011;9774;52.034;5.342;2022-12-05T14:49:55;1.92;;;1.70;;
19280;SDS011;9774;52.034;5.342;2022-12-05T14:52:26;2.00;;;1.60;;
19280;SDS011;9774;52.034;5.342;2022-12-05T14:54:59;1.90;;;1.48;;
19280;SDS011;9774;52.034;5.342;2022-12-05T14:57:30;1.83;;;1.40;;
19280;SDS011;9774;52.034;5.342;2022-12-05T15:00:00;2.28;;;1.35;;
19280;SDS011;9774;52.034;5.342;2022-12-05T15:02:32;1.65;;;1.25;;
19280;SDS011;9774;52.034;5.342;2022-12-05T15:05:03;2.67;;;1.50;;
19280;SDS011;9774;52.034;5.342;2022-12-05T15:07:48;1.73;;;1.42;;
19280;SDS011;9774;52.034;5.342;2022-12-05T15:10:19;1.90;;;1.50;;
19280;SDS011;9774;52.034;5.342;2022-12-05T15:12:50;2.45;;;1.40;;
19280;SDS011;9774;52.034;5.342;2022-12-05T15:15:23;2.40;;;1.67;;
19280;SDS011;9774;52.034;5.342;2022-12-05T15:17:58;3.53;;;1.83;;
19280;SDS011;9774;52.034;5.342;2022-12-05T15:20:33;1.92;;;1.52;;
19280;SDS011;9774;52.034;5.342;2022-12-05T15:26:05;2.33;;;1.83;;
19280;SDS011;9774;52.034;5.342;2022-12-05T15:28:55;3.15;;;2.30;;
19280;SDS011;9774;52.034;5.342;2022-12-05T15:31:27;3.42;;;2.28;;
19280;SDS011;9774;52.034;5.342;2022-12-05T15:33:58;2.78;;;1.85;;
19280;SDS011;9774;52.034;5.342;2022-12-05T15:36:32;2.50;;;1.88;;
19280;SDS011;9774;52.034;5.342;2022-12-05T15:39:02;2.65;;;1.95;;
19280;SDS011;9774;52.034;5.342;2022-12-05T15:41:32;3.10;;;1.70;;
19280;SDS011;9774;52.034;5.342;2022-12-05T15:43:59;2.75;;;1.65;;
19280;SDS011;9774;52.034;5.342;2022-12-05T15:46:30;2.53;;;1.75;;
19280;SDS011;9774;52.034;5.342;2022-12-05T15:48:57;3.00;;;1.58;;